createdAt,value
2022-12-28T00:02:20.040Z,4.18
2022-12-28T00:07:22.969Z,4.12
2022-12-28T00:12:19.977Z,4.21
2022-12-28T00:17:19.932Z,4.43
2022-12-28T00:22:19.832Z,4.44
2022-12-28T00:27:20.149Z,4.59
2022-12-28T00:32:19.736Z,4.67
2022-12-28T00:37:19.697Z,4.54
2022-12-28T00:42:19.608Z,4.36
2022-12-28T00:47:20.161Z,4.42
2022-12-28T00:52:19.427Z,4.33
2022-12-28T00:57:19.467Z,4.08
2022-12-28T01:02:19.350Z,4.42
2022-12-28T01:07:22.303Z,4.18
2022-12-28T01:12:19.172Z,3.71
2022-12-28T01:17:19.121Z,4.01
2022-12-28T01:22:18.993Z,4.46
2022-12-28T01:27:19.036Z,4.57
2022-12-28T01:32:18.864Z,4.62
2022-12-28T01:37:18.831Z,4.83
2022-12-28T01:42:18.868Z,5.02
2022-12-28T01:47:18.755Z,5.22
2022-12-28T01:52:18.662Z,5.25
2022-12-28T01:57:18.763Z,5.10
2022-12-28T02:02:19.648Z,5.32
2022-12-28T02:07:21.566Z,5.41
2022-12-28T02:12:18.328Z,4.88
2022-12-28T02:17:18.475Z,5.05
2022-12-28T02:22:18.321Z,4.92
2022-12-28T02:27:25.433Z,5.34
2022-12-28T02:32:25.761Z,5.46
2022-12-28T02:37:17.942Z,5.32
2022-12-28T02:42:18.016Z,5.17
2022-12-28T02:47:17.958Z,5.40
2022-12-28T02:52:18.055Z,5.32
2022-12-28T02:57:17.792Z,5.05
2022-12-28T03:02:17.888Z,5.41
2022-12-28T03:07:20.690Z,5.12
2022-12-28T03:12:17.629Z,4.92
2022-12-28T03:17:17.589Z,5.17
2022-12-28T03:22:17.475Z,5.28
2022-12-28T03:27:20.031Z,5.45
2022-12-28T03:32:17.225Z,5.68
2022-12-28T03:37:17.336Z,5.53
2022-12-28T03:42:17.152Z,5.67
2022-12-28T03:47:18.768Z,5.93
2022-12-28T03:52:17.034Z,6.21
2022-12-28T03:57:17.053Z,6.30
2022-12-28T04:02:25.141Z,6.89
2022-12-28T04:07:27.726Z,6.94
2022-12-28T04:12:16.909Z,6.03
2022-12-28T04:17:24.177Z,6.91
2022-12-28T04:22:16.695Z,6.84
2022-12-28T04:27:16.704Z,6.40
2022-12-28T04:32:16.489Z,6.46
2022-12-28T04:37:16.626Z,6.87
2022-12-28T04:42:16.594Z,6.83
2022-12-28T04:47:16.442Z,6.89
2022-12-28T04:52:16.341Z,6.65
2022-12-28T04:57:16.362Z,7.12
2022-12-28T05:02:16.355Z,6.53
2022-12-28T05:07:19.230Z,6.81
2022-12-28T05:12:16.070Z,6.48
2022-12-28T05:17:15.982Z,6.65
2022-12-28T05:22:16.027Z,6.62
2022-12-28T05:27:15.872Z,6.58
2022-12-28T05:32:15.718Z,6.77
2022-12-28T05:37:21.763Z,6.40
2022-12-28T05:42:16.691Z,6.58
2022-12-28T05:47:17.396Z,6.72
2022-12-28T05:52:15.517Z,6.87
2022-12-28T05:57:15.372Z,7.01
2022-12-28T06:02:19.107Z,6.86
2022-12-28T06:07:19.601Z,6.91
2022-12-28T06:12:15.274Z,6.73
2022-12-28T06:17:15.185Z,6.99
2022-12-28T06:22:15.207Z,7.04
2022-12-28T06:27:15.142Z,7.53
2022-12-28T06:32:14.981Z,7.47
2022-12-28T06:37:15.215Z,7.38
2022-12-28T06:42:14.989Z,7.37
2022-12-28T06:47:15.056Z,7.53
2022-12-28T06:52:15.667Z,7.19
2022-12-28T06:57:22.528Z,7.07
2022-12-28T07:02:14.885Z,7.05
2022-12-28T07:07:18.042Z,6.83
2022-12-28T07:12:14.520Z,6.89
2022-12-28T07:17:14.560Z,7.09
2022-12-28T07:22:14.334Z,7.50
2022-12-28T07:27:14.335Z,7.29
2022-12-28T07:32:14.289Z,7.42
2022-12-28T07:37:14.198Z,7.69
2022-12-28T07:42:14.048Z,7.53
2022-12-28T07:47:14.079Z,7.74
2022-12-28T07:52:13.959Z,7.93
2022-12-28T07:57:13.947Z,7.97
2022-12-28T08:02:13.892Z,8.02
2022-12-28T08:07:16.894Z,8.44
2022-12-28T08:12:13.815Z,8.03
2022-12-28T08:17:20.701Z,8.57
2022-12-28T08:22:14.853Z,8.57
2022-12-28T08:27:13.619Z,8.71
2022-12-28T08:32:13.457Z,8.84
2022-12-28T08:37:13.430Z,8.87
2022-12-28T08:42:13.376Z,9.05
2022-12-28T08:47:13.250Z,9.49
2022-12-28T08:52:13.193Z,9.60
2022-12-28T08:57:13.339Z,9.88
2022-12-28T09:02:13.353Z,9.83
2022-12-28T09:07:16.361Z,9.67
2022-12-28T09:12:13.124Z,9.32
2022-12-28T09:17:12.889Z,9.97
2022-12-28T09:22:12.800Z,9.93
2022-12-28T09:27:12.848Z,10.04
2022-12-28T09:32:12.800Z,9.81
2022-12-28T09:37:12.609Z,9.75
2022-12-28T09:42:12.535Z,10.09
2022-12-28T09:47:20.328Z,10.17
2022-12-28T09:52:21.660Z,10.21
2022-12-28T09:58:43.951Z,10.15
2022-12-28T10:04:52.415Z,10.34
2022-12-28T10:09:52.248Z,10.51
2022-12-28T10:14:52.250Z,10.60
2022-12-28T10:19:52.225Z,10.47
2022-12-28T10:24:52.164Z,10.70
2022-12-28T10:29:52.084Z,10.91
2022-12-28T10:34:51.958Z,11.19
2022-12-28T10:39:52.016Z,11.56
2022-12-28T10:44:52.800Z,11.25
2022-12-28T10:50:18.563Z,11.20
2022-12-28T10:55:08.475Z,11.31
2022-12-28T10:59:52.613Z,10.83
2022-12-28T11:04:51.570Z,11.02
2022-12-28T11:09:51.599Z,10.76
2022-12-28T11:14:51.456Z,11.36
2022-12-28T11:19:51.507Z,11.27
2022-12-28T11:24:51.395Z,11.41
2022-12-28T11:29:51.615Z,11.01
2022-12-28T11:34:51.382Z,11.21
2022-12-28T11:39:51.223Z,11.52
2022-12-28T11:44:51.181Z,11.52
2022-12-28T11:49:51.112Z,11.49
2022-12-28T11:54:53.959Z,11.39
2022-12-28T12:01:05.848Z,11.39
2022-12-28T12:07:27.436Z,11.43
2022-12-28T12:12:23.698Z,11.41
2022-12-28T12:17:22.522Z,11.50
2022-12-28T12:22:22.819Z,11.06
2022-12-28T12:27:22.125Z,11.11
2022-12-28T12:33:40.420Z,11.39
2022-12-28T12:38:40.334Z,11.06
2022-12-28T12:43:40.211Z,11.27
2022-12-28T12:50:31.105Z,11.20
2022-12-28T12:55:30.790Z,11.43
2022-12-28T13:00:30.800Z,11.57
2022-12-28T13:05:30.661Z,11.43
2022-12-28T13:10:30.670Z,11.62
2022-12-28T13:15:30.693Z,11.62
2022-12-28T13:20:30.414Z,11.56
2022-12-28T13:25:30.459Z,11.56
2022-12-28T13:30:30.401Z,11.70
2022-12-28T13:35:30.228Z,11.64
2022-12-28T13:40:33.325Z,11.80
2022-12-28T13:47:29.144Z,11.54
2022-12-28T13:53:48.469Z,11.77
2022-12-28T14:01:30.464Z,11.61
2022-12-28T14:07:47.987Z,11.74
2022-12-28T14:12:47.552Z,11.11
2022-12-28T14:17:47.599Z,11.35
2022-12-28T14:22:47.748Z,11.03
2022-12-28T14:27:47.335Z,10.99
2022-12-28T14:32:47.358Z,10.94
2022-12-28T14:37:47.202Z,10.99
2022-12-28T14:42:47.142Z,11.06
2022-12-28T14:47:47.261Z,11.09
2022-12-28T14:52:47.198Z,11.07
2022-12-28T14:57:51.544Z,10.86
2022-12-28T15:06:56.962Z,11.35
2022-12-28T15:19:56.302Z,11.16
2022-12-28T15:24:54.129Z,11.10
2022-12-28T15:30:06.050Z,11.46
2022-12-28T15:34:54.797Z,11.09
2022-12-28T15:39:53.807Z,11.27
2022-12-28T15:44:53.509Z,11.41
2022-12-28T15:49:53.500Z,11.07
2022-12-28T15:54:53.629Z,11.17
2022-12-28T15:59:55.547Z,11.11
2022-12-28T16:04:53.313Z,11.20
2022-12-28T16:09:56.325Z,11.24
2022-12-28T16:14:53.151Z,10.80
2022-12-28T16:19:53.100Z,11.31
2022-12-28T16:24:53.254Z,11.16
2022-12-28T16:31:21.906Z,11.54
2022-12-28T16:38:02.924Z,11.24
2022-12-28T16:43:02.909Z,11.35
2022-12-28T16:48:03.236Z,11.52
2022-12-28T16:53:02.470Z,11.07
2022-12-28T16:59:22.128Z,11.61
2022-12-28T17:19:30.778Z,10.81
2022-12-28T17:25:48.163Z,11.36
2022-12-28T17:30:47.988Z,10.92
2022-12-28T17:35:47.873Z,10.94
2022-12-28T17:40:47.891Z,10.47
2022-12-28T17:45:47.815Z,10.68
2022-12-28T17:50:47.892Z,10.55
2022-12-28T17:55:48.445Z,10.53
2022-12-28T18:00:47.601Z,10.19
2022-12-28T18:05:49.335Z,10.30
2022-12-28T18:17:00.452Z,10.58
2022-12-28T18:22:00.114Z,10.42
2022-12-28T18:28:21.330Z,10.88
2022-12-28T18:36:39.462Z,10.66
2022-12-28T18:41:47.776Z,10.68
2022-12-28T18:48:04.610Z,10.65
2022-12-28T18:55:32.337Z,10.33
2022-12-28T19:03:54.591Z,10.55
2022-12-28T19:08:54.379Z,10.66
2022-12-28T19:13:54.330Z,10.71
2022-12-28T19:25:23.137Z,10.86
2022-12-28T20:17:47.810Z,10.99
2022-12-28T20:26:39.351Z,10.66
2022-12-28T20:31:38.823Z,10.65
2022-12-28T20:42:03.484Z,10.89
2022-12-28T20:47:03.774Z,10.56
2022-12-28T20:55:21.196Z,10.62
2022-12-28T21:05:59.138Z,10.59
2022-12-28T21:10:59.004Z,10.91
2022-12-28T21:18:03.309Z,10.94
2022-12-28T23:14:07.215Z,11.24
2022-12-28T23:19:06.705Z,11.20
2022-12-28T23:27:59.085Z,11.17
2022-12-28T23:34:27.518Z,10.94
2022-12-28T23:41:01.216Z,11.07
2022-12-28T23:46:01.024Z,10.70
2022-12-28T23:51:00.970Z,10.81
2022-12-28T23:58:12.681Z,11.11
